Time;durP1;ratioP1;P1;durP2;ratioP2;P2;SDS_P1;SDS_P2;PMS_P1;PMS_P2;Temp;Humidity;BMP_temperature;BMP_pressure;BME280_temperature;BME280_humidity;BME280_pressure;Samples;Min_cycle;Max_cycle;Signal;HPM_P1;HPM_P2
2021/09/03 02:45:11;;;;;;;10.63;7.28;;;13.70;96.10;;;;;;5933883;23;20330;31
2021/09/03 02:47:37;;;;;;;15.88;8.45;;;13.70;95.90;;;;;;4786935;29;20047;-81
2021/09/03 02:50:05;;;;;;;9.13;6.75;;;13.70;95.80;;;;;;4799538;30;20063;-81
2021/09/03 02:52:30;;;;;;;;;;;13.70;95.80;;;;;;4800234;30;20234;-81
2021/09/03 02:54:57;;;;;;;11.05;7.30;;;13.70;95.90;;;;;;4799885;29;19944;-81
2021/09/03 02:57:23;;;;;;;14.93;8.07;;;13.70;95.70;;;;;;4799789;30;20330;-81
2021/09/03 02:59:48;;;;;;;15.27;8.40;;;13.60;95.70;;;;;;4799657;30;20035;-81
2021/09/03 03:02:14;;;;;;;10.90;7.32;;;13.60;95.80;;;;;;4799827;30;20314;-81
2021/09/03 03:04:40;;;;;;;12.25;8.25;;;13.60;95.80;;;;;;4800685;30;20031;-81
2021/09/03 03:07:05;;;;;;;16.17;8.30;;;13.60;95.80;;;;;;4801179;30;20027;-80
2021/09/03 03:09:31;;;;;;;10.13;7.18;;;13.60;95.80;;;;;;4799836;30;20334;-81
2021/09/03 03:11:57;;;;;;;16.10;7.25;;;13.50;95.80;;;;;;4799558;30;20050;-81
2021/09/03 03:14:32;;;;;;;12.15;7.50;;;13.60;95.60;;;;;;4799471;30;20141;-81
2021/09/03 03:16:59;;;;;;;12.25;7.47;;;13.50;95.50;;;;;;4814955;29;20060;-81
2021/09/03 03:19:25;;;;;;;13.93;7.55;;;13.50;95.30;;;;;;4799494;30;20049;-81
2021/09/03 03:21:52;;;;;;;19.27;8.90;;;13.50;95.40;;;;;;4799560;30;20066;-80
2021/09/03 03:24:18;;;;;;;16.87;8.80;;;13.40;95.50;;;;;;4799337;30;20032;-80
2021/09/03 03:26:44;;;;;;;15.00;8.40;;;13.40;95.70;;;;;;4800690;30;20023;-81
2021/09/03 03:29:09;;;;;;;16.20;8.90;;;13.40;95.60;;;;;;4799553;30;20031;-81
2021/09/03 03:31:35;;;;;;;15.10;8.55;;;13.40;95.70;;;;;;4799299;29;20041;-80
2021/09/03 03:34:02;;;;;;;13.15;8.38;;;13.40;95.60;;;;;;4799691;30;20043;-81
2021/09/03 03:36:28;;;;;;;12.68;8.02;;;13.40;95.80;;;;;;4799165;30;20031;-81
2021/09/03 03:38:54;;;;;;;13.45;7.90;;;13.40;95.70;;;;;;4798906;30;20303;-80
2021/09/03 03:41:19;;;;;;;12.88;7.70;;;13.40;95.60;;;;;;4799188;30;20106;-81
2021/09/03 03:43:45;;;;;;;12.73;8.40;;;13.30;95.50;;;;;;4798809;29;20038;-81
2021/09/03 03:46:11;;;;;;;12.38;7.60;;;13.30;95.50;;;;;;4809721;29;20077;-81
2021/09/03 03:48:37;;;;;;;12.80;7.90;;;13.30;95.50;;;;;;4820452;29;20033;-80
2021/09/03 03:51:03;;;;;;;14.98;8.43;;;13.30;95.50;;;;;;4835474;29;20062;-80
2021/09/03 03:53:28;;;;;;;14.85;8.15;;;13.20;95.50;;;;;;4820586;29;20033;-81
2021/09/03 03:55:54;;;;;;;14.63;8.85;;;13.20;95.40;;;;;;4805312;29;20034;-81
2021/09/03 03:58:20;;;;;;;16.08;8.50;;;13.20;95.50;;;;;;4805413;29;20338;-80
2021/09/03 04:00:46;;;;;;;13.48;7.95;;;13.20;95.50;;;;;;4836804;29;20023;-80
2021/09/03 04:03:12;;;;;;;13.20;8.43;;;13.20;95.50;;;;;;4820350;29;20030;-81
2021/09/03 04:05:38;;;;;;;15.98;8.30;;;13.20;95.60;;;;;;4805369;29;20310;-80
2021/09/03 04:08:04;;;;;;;12.35;7.68;;;13.10;95.70;;;;;;4805148;29;20038;-81
2021/09/03 04:10:30;;;;;;;13.15;8.10;;;13.10;95.70;;;;;;4820451;29;20349;-81
2021/09/03 04:12:56;;;;;;;17.23;10.05;;;13.10;95.70;;;;;;4805091;29;20022;-80
2021/09/03 04:15:22;;;;;;;16.88;8.70;;;13.10;95.80;;;;;;4804739;29;20033;-81
2021/09/03 04:17:47;;;;;;;13.30;8.50;;;13.10;96.20;;;;;;4835405;29;20026;-80
2021/09/03 04:20:13;;;;;;;13.85;7.75;;;13.10;96.20;;;;;;4835089;29;20042;-80
2021/09/03 04:22:39;;;;;;;15.68;9.02;;;13.10;96.20;;;;;;4835359;29;20085;-80
2021/09/03 04:25:06;;;;;;;22.48;10.02;;;13.10;96.30;;;;;;4819709;29;20041;-80
2021/09/03 04:27:32;;;;;;;15.18;8.68;;;13.10;96.80;;;;;;4836187;29;20026;-80
2021/09/03 04:29:58;;;;;;;16.23;8.52;;;13.10;96.50;;;;;;4836249;29;20056;-81
2021/09/03 04:32:24;;;;;;;15.70;9.93;;;13.20;96.40;;;;;;4804667;29;20034;-81
2021/09/03 04:34:50;;;;;;;15.63;10.38;;;13.10;96.20;;;;;;4819883;29;20034;-81
2021/09/03 04:37:15;;;;;;;20.58;10.05;;;13.20;96.10;;;;;;4805235;29;20038;-80
2021/09/03 04:39:41;;;;;;;24.70;10.45;;;13.20;96.20;;;;;;4804633;29;20096;-80
2021/09/03 04:42:07;;;;;;;16.23;9.43;;;13.30;96.30;;;;;;4804544;29;20037;-81
2021/09/03 04:44:33;;;;;;;26.02;11.75;;;13.30;96.30;;;;;;4819666;29;20023;-80
2021/09/03 04:46:59;;;;;;;17.55;9.43;;;13.30;96.60;;;;;;4814360;29;20048;-80
2021/09/03 04:49:24;;;;;;;19.38;9.68;;;13.30;96.70;;;;;;4854399;29;20325;-80
2021/09/03 04:51:50;;;;;;;23.15;9.93;;;13.40;96.50;;;;;;4837903;29;20057;-81
2021/09/03 04:54:16;;;;;;;20.40;9.75;;;13.40;96.40;;;;;;4837880;29;20065;-81
2021/09/03 04:56:42;;;;;;;19.27;10.25;;;13.50;96.60;;;;;;4846801;29;20270;-80
2021/09/03 04:59:08;;;;;;;16.73;10.00;;;13.60;96.50;;;;;;4844358;29;20082;-80
2021/09/03 05:01:33;;;;;;;23.77;10.85;;;13.70;96.40;;;;;;4849705;29;20021;-80
2021/09/03 05:03:59;;;;;;;22.20;10.95;;;13.80;96.20;;;;;;4842330;29;20041;-80
2021/09/03 05:06:25;;;;;;;15.68;10.30;;;13.80;96.60;;;;;;4862794;29;20085;-79
2021/09/03 05:08:51;;;;;;;19.50;10.98;;;13.90;96.50;;;;;;4843526;29;20033;-81
2021/09/03 05:11:17;;;;;;;19.52;10.45;;;14.00;96.50;;;;;;4859022;29;20076;-81
2021/09/03 05:13:43;;;;;;;20.88;10.65;;;14.00;96.20;;;;;;4845111;29;20041;-80
2021/09/03 05:16:09;;;;;;;19.15;10.65;;;14.10;96.00;;;;;;4848397;29;20074;-80
2021/09/03 05:18:34;;;;;;;17.33;10.57;;;14.20;96.10;;;;;;4845964;29;20042;-80
2021/09/03 05:21:00;;;;;;;19.17;10.07;;;14.20;96.10;;;;;;4852017;29;20064;-80
2021/09/03 05:23:26;;;;;;;19.55;10.18;;;14.30;96.00;;;;;;4856888;29;20030;-81
2021/09/03 05:25:52;;;;;;;25.30;11.52;;;14.40;95.70;;;;;;4861139;29;20033;-80
2021/09/03 05:28:18;;;;;;;18.30;10.88;;;14.50;95.90;;;;;;4832835;29;20104;-80
2021/09/03 05:30:44;;;;;;;17.63;9.52;;;14.60;95.70;;;;;;4858632;29;20037;-80
2021/09/03 05:33:09;;;;;;;22.13;10.80;;;14.70;95.40;;;;;;4855806;29;20033;-80
2021/09/03 05:35:35;;;;;;;26.33;11.85;;;14.80;95.60;;;;;;4843003;29;20074;-80
2021/09/03 05:38:04;;;;;;;24.83;11.02;;;14.80;95.80;;;;;;4861336;29;20305;-82
2021/09/03 05:40:32;;;;;;;27.55;12.27;;;15.00;95.90;;;;;;4841800;29;20018;-80
2021/09/03 05:42:57;;;;;;;22.60;11.90;;;15.10;95.50;;;;;;4858751;29;20022;-80
2021/09/03 05:45:23;;;;;;;43.22;14.75;;;15.10;95.90;;;;;;4835584;29;20045;-80
2021/09/03 05:47:49;;;;;;;22.63;12.05;;;15.20;96.50;;;;;;4871906;29;20029;-80
2021/09/03 05:50:15;;;;;;;27.85;12.77;;;15.30;97.10;;;;;;4869155;29;20069;-80
2021/09/03 05:52:41;;;;;;;24.38;12.27;;;15.50;96.80;;;;;;4855875;29;20064;-80
2021/09/03 05:55:08;;;;;;;25.58;13.05;;;15.50;96.80;;;;;;4840769;29;20084;-80
2021/09/03 05:57:34;;;;;;;25.48;12.88;;;15.60;96.60;;;;;;4851091;29;20034;-80
2021/09/03 06:00:00;;;;;;;23.45;10.90;;;15.70;96.60;;;;;;4846149;29;20037;-82
2021/09/03 06:02:26;;;;;;;28.10;12.63;;;15.80;96.30;;;;;;4812934;29;20030;-79
2021/09/03 06:04:52;;;;;;;28.37;13.37;;;15.90;96.00;;;;;;4827383;29;20226;-79
2021/09/03 06:07:18;;;;;;;24.70;11.80;;;16.00;95.70;;;;;;4834331;29;20062;-79
2021/09/03 06:09:43;;;;;;;48.70;13.15;;;16.00;95.80;;;;;;4851782;29;20059;-79
2021/09/03 06:12:09;;;;;;;41.53;13.00;;;16.10;96.10;;;;;;4849462;29;20275;-79
2021/09/03 06:14:35;;;;;;;39.90;11.90;;;16.20;95.80;;;;;;4869260;29;20033;-79
2021/09/03 06:17:01;;;;;;;47.95;12.90;;;16.20;95.60;;;;;;4868280;29;20042;-78
2021/09/03 06:19:27;;;;;;;44.25;12.73;;;16.30;95.40;;;;;;4862105;29;20032;-79
2021/09/03 06:21:53;;;;;;;30.58;12.63;;;16.40;95.30;;;;;;4846274;29;20059;-79
2021/09/03 06:24:28;;;;;;;24.00;10.63;;;16.40;95.30;;;;;;4853244;29;20029;-79
2021/09/03 06:26:58;;;;;;;30.38;12.85;;;16.50;95.40;;;;;;4847379;29;20049;-79
2021/09/03 06:32:09;;;;;;;23.30;12.32;;;16.70;95.20;;;;;;4868404;29;20325;-79
2021/09/03 06:34:37;;;;;;;29.75;12.25;;;16.70;94.90;;;;;;4852232;29;20039;-79
2021/09/03 06:37:04;;;;;;;36.35;12.98;;;16.80;94.80;;;;;;4867590;29;20030;-79
2021/09/03 06:39:29;;;;;;;39.87;12.57;;;16.90;94.90;;;;;;4872675;29;20104;-79
2021/09/03 06:41:55;;;;;;;44.45;13.48;;;17.00;94.60;;;;;;4862790;29;20206;-79
2021/09/03 06:44:21;;;;;;;23.58;14.50;;;17.20;94.20;;;;;;4848253;29;20026;-80
2021/09/03 06:46:46;;;;;;;35.88;12.43;;;17.20;94.40;;;;;;4853102;29;20078;-80
2021/09/03 06:49:12;;;;;;;37.15;13.32;;;17.30;93.90;;;;;;4853733;29;20037;-79
2021/09/03 06:51:38;;;;;;;34.17;12.90;;;17.40;94.00;;;;;;4857569;29;20112;-80
2021/09/03 06:54:04;;;;;;;49.53;14.23;;;17.50;93.80;;;;;;4845475;29;20038;-80
2021/09/03 06:56:29;;;;;;;32.22;12.50;;;17.60;93.70;;;;;;4845440;29;20053;-82
2021/09/03 06:58:55;;;;;;;47.53;12.95;;;17.70;93.40;;;;;;4842393;29;20053;-79
2021/09/03 07:01:21;;;;;;;32.95;13.55;;;17.80;93.30;;;;;;4870973;29;20053;-79
2021/09/03 07:03:47;;;;;;;34.75;13.32;;;17.90;93.20;;;;;;4850222;29;20197;-79
2021/09/03 07:06:12;;;;;;;35.08;12.10;;;18.10;92.90;;;;;;4856205;29;20086;-79
2021/09/03 07:08:38;;;;;;;38.78;11.98;;;18.20;93.00;;;;;;4857496;29;20057;-79
2021/09/03 07:11:04;;;;;;;34.03;12.88;;;18.40;92.80;;;;;;4841546;29;20262;-79
2021/09/03 07:13:30;;;;;;;36.13;12.32;;;18.50;92.70;;;;;;4841416;29;20036;-79
2021/09/03 07:15:56;;;;;;;23.27;10.67;;;18.70;92.60;;;;;;4856231;29;20263;-79
2021/09/03 07:18:22;;;;;;;23.70;11.05;;;18.80;92.00;;;;;;4825198;29;20034;-79
2021/09/03 07:20:47;;;;;;;19.63;10.70;;;19.00;91.70;;;;;;4840585;29;20053;-79
2021/09/03 07:23:13;;;;;;;34.67;11.45;;;19.20;91.60;;;;;;4841258;29;20018;-80
2021/09/03 07:25:39;;;;;;;22.05;10.77;;;19.30;90.80;;;;;;4825638;29;20025;-79
2021/09/03 07:28:04;;;;;;;25.83;9.52;;;19.40;90.30;;;;;;4841033;29;20344;-80
2021/09/03 07:30:30;;;;;;;14.32;8.57;;;19.60;87.70;;;;;;4856675;29;20033;-80
2021/09/03 07:32:56;;;;;;;15.23;8.25;;;19.60;88.80;;;;;;4840705;29;20086;-79
2021/09/03 07:35:22;;;;;;;15.18;8.77;;;19.80;88.40;;;;;;4840275;29;20017;-79
2021/09/03 07:37:47;;;;;;;14.30;8.35;;;19.90;87.10;;;;;;4840895;29;20075;-79
2021/09/03 07:40:13;;;;;;;19.70;8.75;;;19.90;88.80;;;;;;4824517;29;20078;-79
2021/09/03 07:42:39;;;;;;;16.92;8.18;;;20.10;87.70;;;;;;4839834;29;20183;-79
2021/09/03 07:45:06;;;;;;;12.73;7.43;;;20.20;87.30;;;;;;4840370;29;20049;-79
2021/09/03 07:47:31;;;;;;;12.60;7.70;;;20.30;87.90;;;;;;4854743;29;20065;-80
2021/09/03 07:49:57;;;;;;;23.80;6.78;;;20.40;85.20;;;;;;4824588;29;20041;-80
2021/09/03 07:52:23;;;;;;;12.63;6.85;;;20.50;85.80;;;;;;4840288;29;20061;-79
2021/09/03 07:54:48;;;;;;;18.55;6.80;;;20.70;83.60;;;;;;4840795;29;20054;-79
2021/09/03 07:57:14;;;;;;;42.63;8.50;;;20.80;83.60;;;;;;4855915;29;20073;-80
2021/09/03 07:59:40;;;;;;;15.52;7.25;;;20.90;84.00;;;;;;4834982;29;20057;-80
2021/09/03 08:02:06;;;;;;;9.82;6.32;;;21.10;83.10;;;;;;4839939;29;20030;-80
2021/09/03 08:04:31;;;;;;;10.48;6.25;;;21.30;81.30;;;;;;4839812;29;20232;-80
2021/09/03 08:06:57;;;;;;;18.58;6.80;;;21.30;79.30;;;;;;4840162;29;20078;-79
2021/09/03 08:09:24;;;;;;;12.55;6.63;;;21.50;77.90;;;;;;4839829;29;20037;-80
2021/09/03 08:11:50;;;;;;;9.73;6.85;;;21.50;77.90;;;;;;4839359;29;20057;-80
2021/09/03 08:14:16;;;;;;;13.00;7.38;;;21.60;77.90;;;;;;4854585;29;20337;-80
2021/09/03 08:16:42;;;;;;;13.35;5.97;;;21.60;77.70;;;;;;4838937;29;20101;-79
2021/09/03 08:19:08;;;;;;;21.55;6.78;;;21.70;75.80;;;;;;4854578;29;20034;-79
2021/09/03 08:21:34;;;;;;;12.00;6.32;;;21.80;78.10;;;;;;4838617;29;20037;-79
2021/09/03 08:24:00;;;;;;;12.90;6.20;;;22.00;77.20;;;;;;4838696;29;20105;-80
2021/09/03 08:26:26;;;;;;;12.27;6.57;;;22.20;75.80;;;;;;4855571;29;20014;-80
2021/09/03 08:28:52;;;;;;;21.63;6.43;;;22.30;75.00;;;;;;4838721;29;20109;-80
2021/09/03 08:31:18;;;;;;;11.05;6.57;;;22.40;74.90;;;;;;4853458;29;20042;-80
2021/09/03 08:33:44;;;;;;;14.07;6.15;;;22.50;74.40;;;;;;4853775;29;20044;-80
2021/09/03 08:36:10;;;;;;;10.63;5.75;;;22.50;76.60;;;;;;4856386;29;20226;-79
2021/09/03 08:38:36;;;;;;;10.23;6.10;;;22.70;71.60;;;;;;4854130;29;20040;-80
2021/09/03 08:41:02;;;;;;;16.40;6.18;;;22.70;73.90;;;;;;4854348;29;20084;-79
2021/09/03 08:43:28;;;;;;;15.55;5.97;;;22.80;71.00;;;;;;4853836;29;20026;-80
2021/09/03 08:45:55;;;;;;;13.32;5.20;;;22.80;69.10;;;;;;4853437;29;20098;-77
2021/09/03 08:48:23;;;;;;;23.02;6.45;;;22.80;71.80;;;;;;4853095;29;20082;-78
2021/09/03 08:50:52;;;;;;;11.55;5.53;;;22.80;71.60;;;;;;4822224;29;20052;-79
2021/09/03 08:53:20;;;;;;;36.00;6.28;;;22.90;73.30;;;;;;4838882;29;20034;-79
2021/09/03 08:55:47;;;;;;;24.63;7.38;;;23.00;71.80;;;;;;4853959;29;20067;-78
2021/09/03 08:58:14;;;;;;;23.02;6.07;;;23.20;71.30;;;;;;4853888;29;20022;-78
2021/09/03 09:00:41;;;;;;;31.03;7.30;;;23.40;68.40;;;;;;4837633;29;20287;-78
2021/09/03 09:03:15;;;;;;;25.13;6.90;;;23.50;69.60;;;;;;4852560;29;20058;-78
2021/09/03 09:05:48;;;;;;;37.58;7.45;;;23.70;70.20;;;;;;4852875;29;20078;-78
2021/09/03 09:08:15;;;;;;;21.38;5.85;;;23.90;70.00;;;;;;4852870;29;20086;-78
2021/09/03 09:11:03;;;;;;;18.90;6.25;;;24.00;67.70;;;;;;4852836;29;20028;-78
2021/09/03 09:13:37;;;;;;;20.13;7.20;;;24.10;64.60;;;;;;4837402;29;20034;-78
2021/09/03 09:16:20;;;;;;;17.40;6.47;;;23.90;63.20;;;;;;4822474;29;20385;-77
2021/09/03 09:19:06;;;;;;;17.67;7.97;;;24.00;63.90;;;;;;4852453;29;20034;-78
2021/09/03 09:21:34;;;;;;;22.00;7.82;;;24.10;66.20;;;;;;4837754;29;20033;-80
2021/09/03 09:24:09;;;;;;;18.20;8.63;;;24.10;62.90;;;;;;4852764;29;20041;-77
2021/09/03 09:26:48;;;;;;;22.70;7.93;;;24.00;63.60;;;;;;4853691;29;20040;-78
2021/09/03 09:29:19;;;;;;;8.32;6.57;;;24.00;65.30;;;;;;4852597;29;20054;-77
2021/09/03 09:31:55;;;;;;;15.32;7.00;;;24.20;64.40;;;;;;4837349;29;20033;-78
2021/09/03 09:34:23;;;;;;;11.10;5.43;;;24.30;62.70;;;;;;4837131;29;20038;-78
2021/09/03 09:36:51;;;;;;;9.30;5.72;;;24.30;60.00;;;;;;4837144;29;20034;-78
2021/09/03 09:39:18;;;;;;;10.43;6.63;;;24.30;62.00;;;;;;4853719;29;20066;-78
2021/09/03 09:41:45;;;;;;;12.02;5.95;;;24.50;60.60;;;;;;4854780;29;20034;-78
2021/09/03 09:44:11;;;;;;;12.43;5.05;;;24.40;60.40;;;;;;4854749;29;20045;-77
2021/09/03 09:46:37;;;;;;;11.60;6.13;;;24.50;60.60;;;;;;4839040;29;20081;-78
2021/09/03 09:49:06;;;;;;;13.27;6.43;;;24.50;61.30;;;;;;4854433;29;20030;-78
2021/09/03 09:51:41;;;;;;;10.25;5.85;;;24.50;61.70;;;;;;4854072;29;20041;-77
2021/09/03 09:54:21;;;;;;;12.52;6.03;;;24.60;61.70;;;;;;4838455;29;20042;-78
2021/09/03 09:56:53;;;;;;;18.27;6.65;;;24.80;62.00;;;;;;4854125;29;20030;-78
2021/09/03 09:59:21;;;;;;;11.32;6.20;;;24.90;60.50;;;;;;4838574;29;20305;-78
2021/09/03 10:01:49;;;;;;;17.52;5.97;;;25.10;60.40;;;;;;4854040;29;20106;-77
2021/09/03 10:04:17;;;;;;;14.60;5.55;;;25.20;57.60;;;;;;4854045;29;20034;-78
2021/09/03 10:06:45;;;;;;;15.35;6.60;;;25.20;58.90;;;;;;4838868;29;20030;-78
2021/09/03 10:09:17;;;;;;;10.02;5.40;;;25.30;58.50;;;;;;4838451;29;20084;-77
2021/09/03 10:11:45;;;;;;;10.88;5.25;;;25.40;57.70;;;;;;4838710;29;20033;-78
2021/09/03 10:14:15;;;;;;;13.98;5.50;;;25.60;57.70;;;;;;4823557;29;20042;-77
2021/09/03 10:16:41;;;;;;;11.75;5.22;;;25.70;58.60;;;;;;4854702;29;20034;-77
2021/09/03 10:19:08;;;;;;;13.70;5.47;;;25.80;58.60;;;;;;4853557;29;20229;-77
2021/09/03 10:21:37;;;;;;;8.38;5.13;;;25.80;56.90;;;;;;4853736;29;20070;-77
2021/09/03 10:24:08;;;;;;;11.48;5.05;;;25.90;56.50;;;;;;4853700;29;20321;-77
2021/09/03 10:26:40;;;;;;;16.27;4.93;;;26.00;55.70;;;;;;4853536;29;20030;-77
2021/09/03 10:29:24;;;;;;;8.50;5.30;;;26.00;56.20;;;;;;4853713;29;20041;-78
2021/09/03 10:32:08;;;;;;;11.43;5.72;;;26.00;51.50;;;;;;4853264;29;20352;-77
2021/09/03 10:37:19;;;;;;;12.70;4.82;;;25.80;55.00;;;;;;4854846;29;20037;-77
2021/09/03 10:40:11;;;;;;;10.30;4.88;;;26.00;54.20;;;;;;4853202;29;20030;-77
2021/09/03 10:42:37;;;;;;;6.57;4.35;;;26.00;52.90;;;;;;4854327;29;20313;-77
2021/09/03 10:45:03;;;;;;;13.75;4.32;;;25.90;53.50;;;;;;4853013;29;20030;-78
2021/09/03 10:47:47;;;;;;;8.38;4.25;;;25.80;53.50;;;;;;4867098;29;20049;-77
2021/09/03 10:50:32;;;;;;;10.15;4.47;;;26.00;56.40;;;;;;4872276;29;20065;-78
2021/09/03 10:55:55;;;;;;;6.43;3.92;;;26.20;54.50;;;;;;4871236;29;20048;-77
2021/09/03 10:58:51;;;;;;;5.45;4.05;;;26.30;52.80;;;;;;4855797;29;20094;-78
2021/09/03 11:01:26;;;;;;;11.80;4.87;;;26.30;50.70;;;;;;4871392;29;20351;-78
2021/09/03 11:03:54;;;;;;;10.40;4.72;;;26.40;51.60;;;;;;4871364;29;20029;-77
2021/09/03 11:06:23;;;;;;;14.18;4.53;;;26.40;49.90;;;;;;4855932;29;20033;-77
2021/09/03 11:08:50;;;;;;;11.25;4.07;;;26.50;51.50;;;;;;4871332;29;20030;-77
2021/09/03 11:11:25;;;;;;;11.48;4.40;;;26.60;51.80;;;;;;4871279;29;20330;-78
2021/09/03 11:14:03;;;;;;;13.52;4.60;;;26.60;51.40;;;;;;4871302;29;20044;-78
2021/09/03 11:16:38;;;;;;;11.88;4.10;;;26.60;51.20;;;;;;4855855;29;20033;-78
2021/09/03 11:19:05;;;;;;;11.82;4.55;;;26.60;50.20;;;;;;4871047;29;20217;-78
2021/09/03 11:21:46;;;;;;;10.00;5.05;;;26.50;53.30;;;;;;4871402;29;20032;-78
2021/09/03 11:24:21;;;;;;;10.05;4.70;;;26.60;50.30;;;;;;4855798;29;20021;-78
2021/09/03 11:26:48;;;;;;;6.55;4.03;;;26.60;51.60;;;;;;4870563;29;20161;-78
2021/09/03 11:29:19;;;;;;;8.05;4.18;;;26.60;52.30;;;;;;4870466;29;20041;-78
2021/09/03 11:32:16;;;;;;;6.88;4.30;;;26.70;49.00;;;;;;4870594;29;20278;-78
2021/09/03 11:35:00;;;;;;;14.00;4.93;;;26.80;51.20;;;;;;4799899;29;20078;-77
2021/09/03 11:37:26;;;;;;;14.70;4.10;;;26.90;50.80;;;;;;4800174;29;20045;-77
2021/09/03 11:40:00;;;;;;;9.18;3.85;;;27.00;49.90;;;;;;4800062;29;20102;-77
2021/09/03 11:42:29;;;;;;;7.80;3.83;;;27.00;48.00;;;;;;4800497;29;20042;-78
2021/09/03 11:44:56;;;;;;;6.22;3.40;;;27.00;50.50;;;;;;4815247;29;20039;-78
2021/09/03 11:47:32;;;;;;;8.93;3.58;;;27.00;50.00;;;;;;4801745;29;20103;-77
2021/09/03 11:49:59;;;;;;;6.80;3.50;;;27.10;48.70;;;;;;4767284;30;20120;-77
2021/09/03 11:52:26;;;;;;;;;;;27.20;49.10;;;;;;4782693;30;20178;-78
2021/09/03 11:54:53;;;;;;;7.72;3.67;;;27.20;47.00;;;;;;4796858;29;19913;-78
2021/09/03 11:57:19;;;;;;;9.77;3.63;;;27.20;45.20;;;;;;4797017;30;20035;-77
2021/09/03 12:00:00;;;;;;;7.82;3.38;;;27.00;45.10;;;;;;4781974;30;20102;-77
2021/09/03 12:02:28;;;;;;;5.78;4.03;;;26.80;46.60;;;;;;4767151;30;20059;-78
2021/09/03 12:04:56;;;;;;;8.27;3.80;;;26.70;47.10;;;;;;4796015;29;20051;-78
2021/09/03 12:07:24;;;;;;;6.65;3.78;;;26.80;46.80;;;;;;4782167;30;20041;-78
2021/09/03 12:09:57;;;;;;;8.90;3.65;;;26.90;46.40;;;;;;4796571;29;20041;-78
2021/09/03 12:12:24;;;;;;;4.90;3.17;;;27.20;48.40;;;;;;4831041;29;20042;-77
2021/09/03 12:15:01;;;;;;;9.27;3.15;;;27.30;44.60;;;;;;4803561;29;20034;-78
2021/09/03 12:17:43;;;;;;;6.32;2.80;;;27.40;46.20;;;;;;4830639;29;20232;-78
2021/09/03 12:20:16;;;;;;;10.50;3.25;;;27.50;43.20;;;;;;4855135;29;20076;-78
2021/09/03 12:22:56;;;;;;;10.10;3.00;;;27.50;44.90;;;;;;4855049;29;20347;-78
2021/09/03 12:25:31;;;;;;;4.90;3.08;;;27.70;44.00;;;;;;4863403;29;20161;-78
2021/09/03 12:28:11;;;;;;;6.55;3.00;;;27.80;43.10;;;;;;4845428;29;20297;-77
2021/09/03 12:30:37;;;;;;;8.93;3.03;;;27.90;42.20;;;;;;4818174;29;20325;-77
2021/09/03 12:33:23;;;;;;;11.35;3.42;;;27.80;44.10;;;;;;4803263;29;20075;-78
2021/09/03 12:35:51;;;;;;;6.80;3.08;;;27.80;42.00;;;;;;4841062;29;20055;-78
2021/09/03 12:38:27;;;;;;;5.93;3.60;;;27.70;42.00;;;;;;4859191;29;20084;-77
2021/09/03 12:41:15;;;;;;;5.68;3.60;;;27.70;44.40;;;;;;4856922;29;20030;-78
2021/09/03 12:43:42;;;;;;;5.63;3.45;;;27.80;45.20;;;;;;4825839;29;20206;-78
2021/09/03 12:46:11;;;;;;;10.98;3.30;;;27.90;46.40;;;;;;4836953;29;20079;-77
2021/09/03 12:48:38;;;;;;;4.55;3.22;;;27.90;42.00;;;;;;4851522;29;20096;-77
2021/09/03 12:51:04;;;;;;;8.77;3.70;;;27.80;43.00;;;;;;4841083;29;20089;-78
2021/09/03 12:53:30;;;;;;;7.57;3.30;;;27.60;43.40;;;;;;4862226;29;20337;-77
2021/09/03 12:55:55;;;;;;;6.55;3.13;;;27.50;44.00;;;;;;4863723;29;20078;-80
2021/09/03 12:58:21;;;;;;;6.32;3.15;;;27.50;43.60;;;;;;4854671;29;20074;-77
2021/09/03 13:00:47;;;;;;;8.27;3.50;;;27.50;42.20;;;;;;4871273;29;20046;-77
2021/09/03 13:03:13;;;;;;;7.30;3.33;;;27.50;43.90;;;;;;4870732;29;20036;-78
2021/09/03 13:05:38;;;;;;;4.93;3.75;;;27.50;42.40;;;;;;4854648;29;20228;-77
2021/09/03 13:08:05;;;;;;;7.80;3.95;;;27.60;42.80;;;;;;4860913;29;20068;-78
2021/09/03 13:10:32;;;;;;;4.30;3.15;;;27.70;43.40;;;;;;4844093;29;20034;-78
2021/09/03 13:12:57;;;;;;;4.28;2.92;;;27.70;42.60;;;;;;4831246;29;20018;-77
2021/09/03 13:15:23;;;;;;;4.10;3.03;;;27.70;43.00;;;;;;4805675;29;20033;-78
2021/09/03 13:17:49;;;;;;;12.60;3.35;;;27.80;42.40;;;;;;4838999;29;20037;-77
2021/09/03 13:20:16;;;;;;;11.27;3.00;;;27.80;42.30;;;;;;4842365;29;20233;-77
2021/09/03 13:22:42;;;;;;;6.60;3.13;;;27.90;43.60;;;;;;4851872;29;20074;-77
2021/09/03 13:25:09;;;;;;;6.72;3.63;;;28.00;43.30;;;;;;4858477;29;20092;-77
2021/09/03 13:27:34;;;;;;;6.05;2.88;;;28.00;43.60;;;;;;4842399;29;20037;-77
2021/09/03 13:30:00;;;;;;;5.73;3.47;;;28.00;42.60;;;;;;4864781;29;20029;-77
2021/09/03 13:32:26;;;;;;;4.77;3.40;;;28.00;43.40;;;;;;4866497;29;20140;-76
2021/09/03 13:34:53;;;;;;;4.95;2.58;;;27.90;40.30;;;;;;4855972;29;20369;-77
2021/09/03 13:37:19;;;;;;;4.43;3.13;;;27.80;41.00;;;;;;4866029;29;20045;-77
2021/09/03 13:39:46;;;;;;;4.07;3.25;;;27.80;42.20;;;;;;4871019;29;20036;-77
2021/09/03 13:42:15;;;;;;;5.20;3.00;;;27.70;41.30;;;;;;4842039;29;20336;-77
2021/09/03 13:44:41;;;;;;;6.10;3.38;;;27.70;42.30;;;;;;4840547;29;20030;-78
2021/09/03 13:47:10;;;;;;;5.93;3.63;;;27.70;43.10;;;;;;4839249;29;20045;-80
2021/09/03 13:49:36;;;;;;;8.23;3.75;;;27.70;43.90;;;;;;4840057;29;20293;-79
2021/09/03 13:52:02;;;;;;;4.57;2.67;;;27.90;44.10;;;;;;4856723;29;20033;-79
2021/09/03 13:54:28;;;;;;;6.33;2.77;;;27.90;40.80;;;;;;4858608;29;20077;-82
2021/09/03 13:56:54;;;;;;;7.03;3.63;;;27.90;42.10;;;;;;4873141;29;20304;-81
2021/09/03 13:59:20;;;;;;;11.80;3.58;;;27.90;41.80;;;;;;4869511;29;20045;-80
2021/09/03 14:01:46;;;;;;;8.60;3.20;;;27.90;42.70;;;;;;4823492;29;20082;-79
2021/09/03 14:04:12;;;;;;;9.45;3.47;;;27.90;40.70;;;;;;4854235;29;20543;-80
2021/09/03 14:06:38;;;;;;;6.17;2.97;;;27.90;42.20;;;;;;4856989;29;20033;-79
2021/09/03 14:09:06;;;;;;;5.38;3.28;;;28.00;40.00;;;;;;4870947;29;20018;-79
2021/09/03 14:11:32;;;;;;;5.43;3.20;;;27.80;40.70;;;;;;4870949;29;20064;-79
2021/09/03 14:13:58;;;;;;;5.47;4.00;;;27.70;41.50;;;;;;4852012;29;20217;-79
2021/09/03 14:16:24;;;;;;;7.55;3.65;;;27.60;42.10;;;;;;4834475;29;20038;-80
2021/09/03 14:18:49;;;;;;;6.10;3.08;;;27.80;43.60;;;;;;4820495;29;20045;-79
2021/09/03 14:21:15;;;;;;;7.53;3.22;;;27.90;42.90;;;;;;4821015;29;20093;-79
2021/09/03 14:23:41;;;;;;;6.75;3.00;;;28.00;40.70;;;;;;4821057;29;20039;-79
2021/09/03 14:26:10;;;;;;;5.18;2.65;;;27.90;41.90;;;;;;4821013;29;20270;-79
2021/09/03 14:28:37;;;;;;;12.10;3.17;;;27.70;42.00;;;;;;4804353;29;20034;-79
2021/09/03 14:31:02;;;;;;;6.00;3.20;;;27.70;40.70;;;;;;4820728;29;20089;-79
2021/09/03 14:33:28;;;;;;;7.82;3.30;;;27.60;41.70;;;;;;4835981;29;20046;-79
2021/09/03 14:35:54;;;;;;;4.20;2.92;;;27.60;42.20;;;;;;4854561;29;20033;-79
2021/09/03 14:38:20;;;;;;;7.28;3.45;;;27.60;42.10;;;;;;4838927;29;20210;-79
2021/09/03 14:40:46;;;;;;;3.92;3.03;;;27.60;42.70;;;;;;4838484;29;20081;-80
2021/09/03 14:43:11;;;;;;;6.65;3.00;;;27.60;42.10;;;;;;4820733;29;20058;-79
2021/09/03 14:45:38;;;;;;;8.32;3.25;;;27.60;42.10;;;;;;4820132;29;20121;-79
2021/09/03 14:48:04;;;;;;;;;;;27.50;41.80;;;;;;4809594;29;20038;-79
2021/09/03 14:50:31;;;;;;;5.50;3.13;;;27.40;41.90;;;;;;4848241;29;20116;-79
2021/09/03 14:52:57;;;;;;;12.55;3.25;;;27.40;42.30;;;;;;4820614;29;20068;-79
2021/09/03 14:55:24;;;;;;;4.70;3.28;;;27.30;41.60;;;;;;4837014;29;20188;-79
2021/09/03 14:57:50;;;;;;;3.80;2.78;;;27.20;41.60;;;;;;4821624;29;20045;-79
2021/09/03 15:00:16;;;;;;;4.15;2.95;;;27.10;41.90;;;;;;4820991;29;20302;-79
2021/09/03 15:02:42;;;;;;;6.73;3.30;;;27.20;42.50;;;;;;4856034;29;20034;-79
2021/09/03 15:05:08;;;;;;;8.35;3.35;;;27.20;41.90;;;;;;4857139;29;20261;-79
2021/09/03 15:07:35;;;;;;;4.73;3.30;;;27.20;42.20;;;;;;4836388;29;20110;-79
2021/09/03 15:10:01;;;;;;;8.15;3.53;;;27.20;42.20;;;;;;4823592;29;20030;-79
2021/09/03 15:12:27;;;;;;;4.32;3.15;;;27.10;42.10;;;;;;4820675;29;20333;-79
2021/09/03 15:14:53;;;;;;;7.60;3.30;;;27.10;42.00;;;;;;4821047;29;20102;-79
2021/09/03 15:17:19;;;;;;;6.57;3.67;;;27.00;42.80;;;;;;4850289;29;20045;-79
2021/09/03 15:19:45;;;;;;;5.18;3.20;;;27.00;41.70;;;;;;4839783;29;20026;-79
2021/09/03 15:22:11;;;;;;;4.38;3.17;;;27.10;41.70;;;;;;4838973;29;20228;-80
2021/09/03 15:24:37;;;;;;;7.35;3.58;;;27.10;42.40;;;;;;4833307;29;20037;-79
2021/09/03 15:27:04;;;;;;;6.68;4.22;;;27.00;43.40;;;;;;4820971;29;20086;-79
2021/09/03 15:29:30;;;;;;;8.48;3.40;;;27.00;43.90;;;;;;4821234;29;20022;-79
2021/09/03 15:31:56;;;;;;;7.95;3.55;;;27.10;42.40;;;;;;4821442;29;20255;-79
2021/09/03 15:34:22;;;;;;;7.22;3.53;;;27.00;42.20;;;;;;4839344;29;20030;-79